sensor_id;sensor_type;location;lat;lon;timestamp;P1;durP1;ratioP1;P2;durP2;ratioP2
4583;SDS011;2304;47.606;12.186;2022-11-14T00:02:58;11.00;;;5.93;;
4583;SDS011;2304;47.606;12.186;2022-11-14T00:08:00;7.83;;;4.97;;
4583;SDS011;2304;47.606;12.186;2022-11-14T00:13:03;7.07;;;4.90;;
4583;SDS011;2304;47.606;12.186;2022-11-14T00:18:05;12.70;;;6.37;;
4583;SDS011;2304;47.606;12.186;2022-11-14T00:23:07;9.03;;;5.13;;
4583;SDS011;2304;47.606;12.186;2022-11-14T00:28:10;8.43;;;5.50;;
4583;SDS011;2304;47.606;12.186;2022-11-14T00:33:13;6.40;;;5.03;;
4583;SDS011;2304;47.606;12.186;2022-11-14T00:38:15;7.70;;;5.00;;
4583;SDS011;2304;47.606;12.186;2022-11-14T00:43:18;8.37;;;5.30;;
4583;SDS011;2304;47.606;12.186;2022-11-14T00:48:20;8.33;;;5.83;;
4583;SDS011;2304;47.606;12.186;2022-11-14T00:53:21;7.93;;;4.87;;
4583;SDS011;2304;47.606;12.186;2022-11-14T00:58:25;10.37;;;5.60;;
4583;SDS011;2304;47.606;12.186;2022-11-14T01:03:27;7.90;;;5.13;;
4583;SDS011;2304;47.606;12.186;2022-11-14T01:08:29;7.67;;;5.07;;
4583;SDS011;2304;47.606;12.186;2022-11-14T01:13:32;8.77;;;5.40;;
4583;SDS011;2304;47.606;12.186;2022-11-14T01:18:34;7.10;;;5.13;;
4583;SDS011;2304;47.606;12.186;2022-11-14T01:23:37;11.70;;;5.30;;
4583;SDS011;2304;47.606;12.186;2022-11-14T01:28:41;7.63;;;4.80;;
4583;SDS011;2304;47.606;12.186;2022-11-14T01:33:42;7.03;;;4.90;;
4583;SDS011;2304;47.606;12.186;2022-11-14T01:38:45;7.97;;;5.10;;
4583;SDS011;2304;47.606;12.186;2022-11-14T01:43:49;14.10;;;5.47;;
4583;SDS011;2304;47.606;12.186;2022-11-14T01:48:52;7.27;;;4.67;;
4583;SDS011;2304;47.606;12.186;2022-11-14T01:54:00;7.30;;;5.07;;
4583;SDS011;2304;47.606;12.186;2022-11-14T01:59:07;8.50;;;4.70;;
4583;SDS011;2304;47.606;12.186;2022-11-14T02:04:10;8.50;;;4.87;;
4583;SDS011;2304;47.606;12.186;2022-11-14T02:09:18;9.83;;;5.90;;
4583;SDS011;2304;47.606;12.186;2022-11-14T02:14:21;8.80;;;5.93;;
4583;SDS011;2304;47.606;12.186;2022-11-14T02:19:23;8.93;;;5.40;;
4583;SDS011;2304;47.606;12.186;2022-11-14T02:24:26;7.30;;;5.30;;
4583;SDS011;2304;47.606;12.186;2022-11-14T02:29:29;7.03;;;3.90;;
4583;SDS011;2304;47.606;12.186;2022-11-14T02:34:32;5.70;;;4.20;;
4583;SDS011;2304;47.606;12.186;2022-11-14T02:39:37;6.57;;;4.43;;
4583;SDS011;2304;47.606;12.186;2022-11-14T02:44:39;10.33;;;4.43;;
4583;SDS011;2304;47.606;12.186;2022-11-14T02:49:40;6.37;;;4.00;;
4583;SDS011;2304;47.606;12.186;2022-11-14T02:54:44;9.27;;;4.90;;
4583;SDS011;2304;47.606;12.186;2022-11-14T02:59:45;7.37;;;4.43;;
4583;SDS011;2304;47.606;12.186;2022-11-14T03:04:47;7.57;;;4.57;;
4583;SDS011;2304;47.606;12.186;2022-11-14T03:09:50;7.90;;;5.90;;
4583;SDS011;2304;47.606;12.186;2022-11-14T03:14:52;7.37;;;4.70;;
4583;SDS011;2304;47.606;12.186;2022-11-14T03:19:54;8.30;;;4.77;;
4583;SDS011;2304;47.606;12.186;2022-11-14T03:24:57;6.40;;;4.50;;
4583;SDS011;2304;47.606;12.186;2022-11-14T03:29:59;6.67;;;4.73;;
4583;SDS011;2304;47.606;12.186;2022-11-14T03:35:01;9.27;;;5.13;;
4583;SDS011;2304;47.606;12.186;2022-11-14T03:40:05;7.33;;;4.77;;
4583;SDS011;2304;47.606;12.186;2022-11-14T03:45:08;8.10;;;4.73;;
4583;SDS011;2304;47.606;12.186;2022-11-14T03:50:11;6.87;;;4.80;;
4583;SDS011;2304;47.606;12.186;2022-11-14T03:55:14;6.53;;;4.80;;
4583;SDS011;2304;47.606;12.186;2022-11-14T04:00:17;8.23;;;4.87;;
4583;SDS011;2304;47.606;12.186;2022-11-14T04:05:19;8.80;;;5.53;;
4583;SDS011;2304;47.606;12.186;2022-11-14T04:10:23;8.27;;;5.60;;
4583;SDS011;2304;47.606;12.186;2022-11-14T04:15:24;8.77;;;4.87;;
4583;SDS011;2304;47.606;12.186;2022-11-14T04:20:26;8.07;;;5.10;;
4583;SDS011;2304;47.606;12.186;2022-11-14T04:25:29;8.20;;;5.60;;
4583;SDS011;2304;47.606;12.186;2022-11-14T04:30:31;8.83;;;5.37;;
4583;SDS011;2304;47.606;12.186;2022-11-14T04:35:33;7.20;;;4.93;;
4583;SDS011;2304;47.606;12.186;2022-11-14T04:40:37;10.70;;;6.40;;
4583;SDS011;2304;47.606;12.186;2022-11-14T04:45:39;7.03;;;5.00;;
4583;SDS011;2304;47.606;12.186;2022-11-14T04:50:41;10.13;;;5.03;;
4583;SDS011;2304;47.606;12.186;2022-11-14T04:55:44;7.70;;;5.50;;
4583;SDS011;2304;47.606;12.186;2022-11-14T05:00:46;6.80;;;4.40;;
4583;SDS011;2304;47.606;12.186;2022-11-14T05:05:48;9.70;;;5.40;;
4583;SDS011;2304;47.606;12.186;2022-11-14T05:10:51;11.50;;;6.77;;
4583;SDS011;2304;47.606;12.186;2022-11-14T05:15:56;8.77;;;5.10;;
4583;SDS011;2304;47.606;12.186;2022-11-14T05:20:59;7.87;;;4.83;;
4583;SDS011;2304;47.606;12.186;2022-11-14T05:26:03;12.20;;;7.60;;
4583;SDS011;2304;47.606;12.186;2022-11-14T05:31:07;11.40;;;6.07;;
4583;SDS011;2304;47.606;12.186;2022-11-14T05:36:10;9.07;;;6.47;;
4583;SDS011;2304;47.606;12.186;2022-11-14T05:41:16;9.63;;;6.13;;
4583;SDS011;2304;47.606;12.186;2022-11-14T05:46:19;7.50;;;5.13;;
4583;SDS011;2304;47.606;12.186;2022-11-14T05:51:21;9.00;;;5.70;;
4583;SDS011;2304;47.606;12.186;2022-11-14T05:56:24;8.77;;;6.03;;
4583;SDS011;2304;47.606;12.186;2022-11-14T06:01:26;10.60;;;6.67;;
4583;SDS011;2304;47.606;12.186;2022-11-14T06:06:28;8.33;;;5.77;;
4583;SDS011;2304;47.606;12.186;2022-11-14T06:11:31;7.80;;;5.70;;
4583;SDS011;2304;47.606;12.186;2022-11-14T06:16:33;10.50;;;5.40;;
4583;SDS011;2304;47.606;12.186;2022-11-14T06:21:35;8.50;;;5.80;;
4583;SDS011;2304;47.606;12.186;2022-11-14T06:26:38;12.27;;;7.20;;
4583;SDS011;2304;47.606;12.186;2022-11-14T06:31:40;9.30;;;6.10;;
4583;SDS011;2304;47.606;12.186;2022-11-14T06:36:42;12.47;;;6.67;;
4583;SDS011;2304;47.606;12.186;2022-11-14T06:41:45;9.20;;;6.40;;
4583;SDS011;2304;47.606;12.186;2022-11-14T06:46:47;13.10;;;7.60;;
4583;SDS011;2304;47.606;12.186;2022-11-14T06:51:49;16.90;;;9.27;;
4583;SDS011;2304;47.606;12.186;2022-11-14T06:56:53;11.27;;;6.70;;
4583;SDS011;2304;47.606;12.186;2022-11-14T07:01:55;10.93;;;6.60;;
4583;SDS011;2304;47.606;12.186;2022-11-14T07:06:56;13.83;;;8.60;;
4583;SDS011;2304;47.606;12.186;2022-11-14T07:12:00;14.30;;;8.50;;
4583;SDS011;2304;47.606;12.186;2022-11-14T07:17:02;17.13;;;9.67;;
4583;SDS011;2304;47.606;12.186;2022-11-14T07:22:03;17.13;;;9.03;;
4583;SDS011;2304;47.606;12.186;2022-11-14T07:27:07;16.63;;;8.57;;
4583;SDS011;2304;47.606;12.186;2022-11-14T07:32:11;12.50;;;7.07;;
4583;SDS011;2304;47.606;12.186;2022-11-14T07:37:14;15.10;;;8.20;;
4583;SDS011;2304;47.606;12.186;2022-11-14T07:42:18;15.03;;;8.27;;
4583;SDS011;2304;47.606;12.186;2022-11-14T07:47:19;14.70;;;9.80;;
4583;SDS011;2304;47.606;12.186;2022-11-14T07:52:21;13.93;;;9.23;;
4583;SDS011;2304;47.606;12.186;2022-11-14T07:57:25;12.90;;;7.90;;
4583;SDS011;2304;47.606;12.186;2022-11-14T08:02:26;16.93;;;9.40;;
4583;SDS011;2304;47.606;12.186;2022-11-14T08:07:28;14.07;;;8.37;;
4583;SDS011;2304;47.606;12.186;2022-11-14T08:12:31;14.33;;;7.00;;
4583;SDS011;2304;47.606;12.186;2022-11-14T08:17:33;11.80;;;7.03;;
4583;SDS011;2304;47.606;12.186;2022-11-14T08:22:36;11.77;;;7.30;;
4583;SDS011;2304;47.606;12.186;2022-11-14T08:27:39;14.57;;;7.90;;
4583;SDS011;2304;47.606;12.186;2022-11-14T08:32:40;9.60;;;6.83;;
4583;SDS011;2304;47.606;12.186;2022-11-14T08:37:42;11.60;;;6.63;;
4583;SDS011;2304;47.606;12.186;2022-11-14T08:42:46;8.03;;;5.70;;
4583;SDS011;2304;47.606;12.186;2022-11-14T08:47:50;11.27;;;7.63;;
4583;SDS011;2304;47.606;12.186;2022-11-14T08:52:52;11.27;;;5.80;;
4583;SDS011;2304;47.606;12.186;2022-11-14T08:57:56;9.23;;;6.50;;
4583;SDS011;2304;47.606;12.186;2022-11-14T09:02:57;12.47;;;6.20;;
4583;SDS011;2304;47.606;12.186;2022-11-14T09:07:59;11.63;;;6.37;;
4583;SDS011;2304;47.606;12.186;2022-11-14T09:13:02;9.07;;;5.73;;
4583;SDS011;2304;47.606;12.186;2022-11-14T09:18:04;9.60;;;5.63;;
4583;SDS011;2304;47.606;12.186;2022-11-14T09:23:08;6.87;;;4.87;;
4583;SDS011;2304;47.606;12.186;2022-11-14T09:28:11;7.20;;;4.70;;
4583;SDS011;2304;47.606;12.186;2022-11-14T09:33:13;8.13;;;4.33;;
4583;SDS011;2304;47.606;12.186;2022-11-14T09:38:15;5.20;;;3.40;;
4583;SDS011;2304;47.606;12.186;2022-11-14T09:43:23;11.63;;;4.50;;
4583;SDS011;2304;47.606;12.186;2022-11-14T09:48:38;4.40;;;3.30;;
4583;SDS011;2304;47.606;12.186;2022-11-14T09:53:41;5.97;;;2.80;;
4583;SDS011;2304;47.606;12.186;2022-11-14T09:58:51;9.30;;;3.90;;
4583;SDS011;2304;47.606;12.186;2022-11-14T10:03:57;3.47;;;2.63;;
4583;SDS011;2304;47.606;12.186;2022-11-14T10:09:20;5.80;;;3.57;;
4583;SDS011;2304;47.606;12.186;2022-11-14T10:14:49;3.67;;;2.70;;
4583;SDS011;2304;47.606;12.186;2022-11-14T10:20:01;3.37;;;2.40;;
4583;SDS011;2304;47.606;12.186;2022-11-14T10:25:18;2.93;;;2.17;;
4583;SDS011;2304;47.606;12.186;2022-11-14T10:30:25;4.10;;;2.80;;
4583;SDS011;2304;47.606;12.186;2022-11-14T10:35:36;6.57;;;3.40;;
4583;SDS011;2304;47.606;12.186;2022-11-14T10:40:43;7.27;;;4.00;;
4583;SDS011;2304;47.606;12.186;2022-11-14T10:45:49;6.10;;;2.90;;
4583;SDS011;2304;47.606;12.186;2022-11-14T10:50:54;6.40;;;2.20;;
4583;SDS011;2304;47.606;12.186;2022-11-14T10:55:59;3.20;;;2.20;;
4583;SDS011;2304;47.606;12.186;2022-11-14T11:06:35;4.03;;;2.50;;
4583;SDS011;2304;47.606;12.186;2022-11-14T11:11:37;4.40;;;2.67;;
4583;SDS011;2304;47.606;12.186;2022-11-14T11:16:42;5.40;;;2.60;;
4583;SDS011;2304;47.606;12.186;2022-11-14T11:21:47;3.63;;;2.37;;
4583;SDS011;2304;47.606;12.186;2022-11-14T11:26:50;5.00;;;2.67;;
4583;SDS011;2304;47.606;12.186;2022-11-14T11:32:24;5.10;;;2.83;;
4583;SDS011;2304;47.606;12.186;2022-11-14T11:37:27;5.13;;;3.70;;
4583;SDS011;2304;47.606;12.186;2022-11-14T11:42:32;6.50;;;3.20;;
4583;SDS011;2304;47.606;12.186;2022-11-14T11:47:41;4.90;;;3.30;;
4583;SDS011;2304;47.606;12.186;2022-11-14T11:52:50;5.80;;;3.00;;
4583;SDS011;2304;47.606;12.186;2022-11-14T11:58:01;4.00;;;2.63;;
4583;SDS011;2304;47.606;12.186;2022-11-14T12:03:10;8.57;;;3.07;;
4583;SDS011;2304;47.606;12.186;2022-11-14T12:08:16;5.93;;;3.00;;
4583;SDS011;2304;47.606;12.186;2022-11-14T12:13:49;5.53;;;3.20;;
4583;SDS011;2304;47.606;12.186;2022-11-14T12:19:35;6.23;;;2.83;;
4583;SDS011;2304;47.606;12.186;2022-11-14T12:24:54;5.50;;;3.10;;
4583;SDS011;2304;47.606;12.186;2022-11-14T12:30:18;4.07;;;3.10;;
4583;SDS011;2304;47.606;12.186;2022-11-14T12:35:25;4.77;;;2.90;;
4583;SDS011;2304;47.606;12.186;2022-11-14T12:40:30;9.73;;;4.37;;
4583;SDS011;2304;47.606;12.186;2022-11-14T12:51:04;6.53;;;2.83;;
4583;SDS011;2304;47.606;12.186;2022-11-14T13:08:02;10.80;;;3.63;;
4583;SDS011;2304;47.606;12.186;2022-11-14T13:13:15;6.70;;;3.90;;
4583;SDS011;2304;47.606;12.186;2022-11-14T13:18:35;8.50;;;3.47;;
4583;SDS011;2304;47.606;12.186;2022-11-14T13:24:11;6.60;;;3.67;;
4583;SDS011;2304;47.606;12.186;2022-11-14T13:34:51;7.47;;;4.17;;
4583;SDS011;2304;47.606;12.186;2022-11-14T13:40:01;8.27;;;4.10;;
4583;SDS011;2304;47.606;12.186;2022-11-14T13:45:33;13.70;;;4.60;;
4583;SDS011;2304;47.606;12.186;2022-11-14T13:50:44;8.87;;;4.93;;
4583;SDS011;2304;47.606;12.186;2022-11-14T13:55:54;11.63;;;4.60;;
4583;SDS011;2304;47.606;12.186;2022-11-14T14:01:03;7.77;;;4.50;;
4583;SDS011;2304;47.606;12.186;2022-11-14T14:06:19;9.50;;;4.03;;
4583;SDS011;2304;47.606;12.186;2022-11-14T14:11:34;8.37;;;4.27;;
4583;SDS011;2304;47.606;12.186;2022-11-14T14:16:50;12.97;;;4.63;;
4583;SDS011;2304;47.606;12.186;2022-11-14T14:21:58;8.50;;;4.83;;
4583;SDS011;2304;47.606;12.186;2022-11-14T14:27:08;10.63;;;4.67;;
4583;SDS011;2304;47.606;12.186;2022-11-14T14:32:17;9.60;;;4.53;;
4583;SDS011;2304;47.606;12.186;2022-11-14T14:37:22;8.70;;;3.67;;
4583;SDS011;2304;47.606;12.186;2022-11-14T14:42:26;13.10;;;3.87;;
4583;SDS011;2304;47.606;12.186;2022-11-14T14:47:37;7.20;;;4.30;;
4583;SDS011;2304;47.606;12.186;2022-11-14T14:52:42;9.17;;;4.67;;
4583;SDS011;2304;47.606;12.186;2022-11-14T14:57:45;9.30;;;6.03;;
4583;SDS011;2304;47.606;12.186;2022-11-14T15:02:48;6.97;;;5.03;;
4583;SDS011;2304;47.606;12.186;2022-11-14T15:07:50;5.80;;;4.93;;
4583;SDS011;2304;47.606;12.186;2022-11-14T15:12:57;7.63;;;4.50;;
4583;SDS011;2304;47.606;12.186;2022-11-14T15:17:59;7.83;;;5.27;;
4583;SDS011;2304;47.606;12.186;2022-11-14T15:23:16;8.80;;;5.40;;
4583;SDS011;2304;47.606;12.186;2022-11-14T15:28:21;9.07;;;5.53;;
4583;SDS011;2304;47.606;12.186;2022-11-14T15:33:25;14.53;;;8.43;;
4583;SDS011;2304;47.606;12.186;2022-11-14T15:38:28;26.50;;;12.93;;
4583;SDS011;2304;47.606;12.186;2022-11-14T15:43:44;6.43;;;4.97;;
4583;SDS011;2304;47.606;12.186;2022-11-14T15:48:49;32.33;;;19.17;;
4583;SDS011;2304;47.606;12.186;2022-11-14T15:53:51;13.83;;;9.20;;
4583;SDS011;2304;47.606;12.186;2022-11-14T15:58:54;16.73;;;8.87;;
4583;SDS011;2304;47.606;12.186;2022-11-14T16:03:56;24.00;;;11.67;;
4583;SDS011;2304;47.606;12.186;2022-11-14T16:09:00;28.37;;;13.33;;
4583;SDS011;2304;47.606;12.186;2022-11-14T16:14:04;17.00;;;8.60;;
4583;SDS011;2304;47.606;12.186;2022-11-14T16:19:06;19.70;;;11.83;;
4583;SDS011;2304;47.606;12.186;2022-11-14T16:24:10;19.73;;;11.57;;
4583;SDS011;2304;47.606;12.186;2022-11-14T16:29:17;26.87;;;15.17;;
4583;SDS011;2304;47.606;12.186;2022-11-14T16:34:20;12.77;;;6.73;;
4583;SDS011;2304;47.606;12.186;2022-11-14T16:39:23;11.80;;;7.50;;
4583;SDS011;2304;47.606;12.186;2022-11-14T16:44:26;10.83;;;7.73;;
4583;SDS011;2304;47.606;12.186;2022-11-14T16:49:28;37.70;;;23.03;;
4583;SDS011;2304;47.606;12.186;2022-11-14T16:54:30;19.37;;;12.27;;
4583;SDS011;2304;47.606;12.186;2022-11-14T16:59:33;17.17;;;9.67;;
4583;SDS011;2304;47.606;12.186;2022-11-14T17:04:35;54.50;;;23.03;;
4583;SDS011;2304;47.606;12.186;2022-11-14T17:09:37;69.63;;;24.87;;
4583;SDS011;2304;47.606;12.186;2022-11-14T17:14:40;64.77;;;30.07;;
4583;SDS011;2304;47.606;12.186;2022-11-14T17:19:43;36.00;;;23.73;;
4583;SDS011;2304;47.606;12.186;2022-11-14T17:24:45;53.43;;;26.80;;
4583;SDS011;2304;47.606;12.186;2022-11-14T17:29:49;49.50;;;27.33;;
4583;SDS011;2304;47.606;12.186;2022-11-14T17:34:51;25.83;;;16.90;;
4583;SDS011;2304;47.606;12.186;2022-11-14T17:39:52;41.93;;;23.40;;
4583;SDS011;2304;47.606;12.186;2022-11-14T17:44:56;61.03;;;29.50;;
4583;SDS011;2304;47.606;12.186;2022-11-14T17:49:59;45.37;;;25.63;;
4583;SDS011;2304;47.606;12.186;2022-11-14T17:55:02;41.13;;;23.87;;
4583;SDS011;2304;47.606;12.186;2022-11-14T18:00:06;30.10;;;19.13;;
4583;SDS011;2304;47.606;12.186;2022-11-14T18:05:09;18.20;;;10.43;;
4583;SDS011;2304;47.606;12.186;2022-11-14T18:10:12;17.13;;;12.10;;
4583;SDS011;2304;47.606;12.186;2022-11-14T18:15:15;44.30;;;19.80;;
4583;SDS011;2304;47.606;12.186;2022-11-14T18:20:17;25.07;;;12.33;;
4583;SDS011;2304;47.606;12.186;2022-11-14T18:25:19;11.90;;;7.90;;
4583;SDS011;2304;47.606;12.186;2022-11-14T18:30:22;11.87;;;6.70;;
4583;SDS011;2304;47.606;12.186;2022-11-14T18:35:24;13.73;;;8.97;;
4583;SDS011;2304;47.606;12.186;2022-11-14T18:40:25;15.57;;;9.43;;
4583;SDS011;2304;47.606;12.186;2022-11-14T18:45:28;14.90;;;8.00;;
4583;SDS011;2304;47.606;12.186;2022-11-14T18:50:31;17.27;;;10.03;;
4583;SDS011;2304;47.606;12.186;2022-11-14T18:55:36;21.47;;;13.00;;
4583;SDS011;2304;47.606;12.186;2022-11-14T19:00:40;13.20;;;8.80;;
4583;SDS011;2304;47.606;12.186;2022-11-14T19:05:42;10.03;;;5.70;;
4583;SDS011;2304;47.606;12.186;2022-11-14T19:10:43;15.30;;;9.73;;
4583;SDS011;2304;47.606;12.186;2022-11-14T19:15:47;17.10;;;9.70;;
4583;SDS011;2304;47.606;12.186;2022-11-14T19:20:55;27.67;;;17.33;;
4583;SDS011;2304;47.606;12.186;2022-11-14T19:25:58;30.67;;;18.53;;
4583;SDS011;2304;47.606;12.186;2022-11-14T19:31:02;30.30;;;16.43;;
4583;SDS011;2304;47.606;12.186;2022-11-14T19:36:05;18.33;;;10.70;;
4583;SDS011;2304;47.606;12.186;2022-11-14T19:41:10;46.53;;;23.70;;
4583;SDS011;2304;47.606;12.186;2022-11-14T19:46:16;19.90;;;11.80;;
4583;SDS011;2304;47.606;12.186;2022-11-14T19:51:19;25.53;;;13.53;;
4583;SDS011;2304;47.606;12.186;2022-11-14T19:56:21;26.50;;;13.63;;
4583;SDS011;2304;47.606;12.186;2022-11-14T20:01:25;38.93;;;13.63;;
4583;SDS011;2304;47.606;12.186;2022-11-14T20:06:29;18.80;;;9.50;;
4583;SDS011;2304;47.606;12.186;2022-11-14T20:11:33;19.47;;;10.40;;
4583;SDS011;2304;47.606;12.186;2022-11-14T20:16:36;22.20;;;11.80;;
4583;SDS011;2304;47.606;12.186;2022-11-14T20:21:38;25.13;;;11.57;;
4583;SDS011;2304;47.606;12.186;2022-11-14T20:26:41;23.10;;;11.30;;
4583;SDS011;2304;47.606;12.186;2022-11-14T20:31:45;19.60;;;11.57;;
4583;SDS011;2304;47.606;12.186;2022-11-14T20:36:47;20.47;;;10.80;;
4583;SDS011;2304;47.606;12.186;2022-11-14T20:41:50;16.00;;;10.90;;
4583;SDS011;2304;47.606;12.186;2022-11-14T20:46:53;20.43;;;11.37;;
4583;SDS011;2304;47.606;12.186;2022-11-14T20:51:56;18.03;;;11.17;;
4583;SDS011;2304;47.606;12.186;2022-11-14T20:56:57;16.40;;;9.90;;
4583;SDS011;2304;47.606;12.186;2022-11-14T21:02:01;13.83;;;10.13;;
4583;SDS011;2304;47.606;12.186;2022-11-14T21:07:03;23.70;;;9.87;;
4583;SDS011;2304;47.606;12.186;2022-11-14T21:12:05;13.10;;;8.97;;
4583;SDS011;2304;47.606;12.186;2022-11-14T21:17:08;16.17;;;9.07;;
4583;SDS011;2304;47.606;12.186;2022-11-14T21:22:10;13.93;;;9.40;;
4583;SDS011;2304;47.606;12.186;2022-11-14T21:27:12;16.70;;;9.80;;
4583;SDS011;2304;47.606;12.186;2022-11-14T21:32:15;21.20;;;12.70;;
4583;SDS011;2304;47.606;12.186;2022-11-14T21:37:17;13.60;;;6.97;;
4583;SDS011;2304;47.606;12.186;2022-11-14T21:42:19;11.80;;;7.40;;
4583;SDS011;2304;47.606;12.186;2022-11-14T21:47:22;9.80;;;6.80;;
4583;SDS011;2304;47.606;12.186;2022-11-14T21:52:24;10.20;;;6.70;;
4583;SDS011;2304;47.606;12.186;2022-11-14T21:57:26;12.90;;;7.03;;
4583;SDS011;2304;47.606;12.186;2022-11-14T22:02:29;12.50;;;7.37;;
4583;SDS011;2304;47.606;12.186;2022-11-14T22:07:48;9.50;;;6.20;;
4583;SDS011;2304;47.606;12.186;2022-11-14T22:12:50;9.87;;;6.30;;
4583;SDS011;2304;47.606;12.186;2022-11-14T22:17:54;11.13;;;6.37;;
4583;SDS011;2304;47.606;12.186;2022-11-14T22:22:55;21.10;;;9.20;;
4583;SDS011;2304;47.606;12.186;2022-11-14T22:27:57;27.77;;;12.73;;
4583;SDS011;2304;47.606;12.186;2022-11-14T22:33:00;83.87;;;25.60;;
4583;SDS011;2304;47.606;12.186;2022-11-14T22:38:02;25.60;;;10.77;;
4583;SDS011;2304;47.606;12.186;2022-11-14T22:43:04;48.20;;;16.40;;
4583;SDS011;2304;47.606;12.186;2022-11-14T22:48:07;52.97;;;16.50;;
4583;SDS011;2304;47.606;12.186;2022-11-14T22:53:10;14.53;;;7.03;;
4583;SDS011;2304;47.606;12.186;2022-11-14T22:58:12;17.43;;;7.87;;
4583;SDS011;2304;47.606;12.186;2022-11-14T23:03:16;14.87;;;9.00;;
4583;SDS011;2304;47.606;12.186;2022-11-14T23:08:18;16.33;;;8.77;;
4583;SDS011;2304;47.606;12.186;2022-11-14T23:13:21;10.90;;;7.60;;
4583;SDS011;2304;47.606;12.186;2022-11-14T23:18:24;11.40;;;7.00;;
4583;SDS011;2304;47.606;12.186;2022-11-14T23:23:26;12.93;;;8.60;;
4583;SDS011;2304;47.606;12.186;2022-11-14T23:28:28;20.60;;;11.83;;
4583;SDS011;2304;47.606;12.186;2022-11-14T23:33:31;18.30;;;9.73;;
4583;SDS011;2304;47.606;12.186;2022-11-14T23:38:33;12.70;;;7.33;;
4583;SDS011;2304;47.606;12.186;2022-11-14T23:43:35;15.93;;;8.00;;
4583;SDS011;2304;47.606;12.186;2022-11-14T23:48:39;14.30;;;7.07;;
4583;SDS011;2304;47.606;12.186;2022-11-14T23:53:41;10.80;;;6.53;;
4583;SDS011;2304;47.606;12.186;2022-11-14T23:58:43;11.40;;;6.90;;
